Time;durP1;ratioP1;P1;durP2;ratioP2;P2;SDS_P1;SDS_P2;PMS_P1;PMS_P2;Temp;Humidity;BMP_temperature;BMP_pressure;BME280_temperature;BME280_humidity;BME280_pressure;Samples;Min_cycle;Max_cycle;Signal;HPM_P1;HPM_P2
2023/11/26 00:01:41;;;;;;;1.75;0.90;;;-0.60;99.90;;;;;;4978038;28;20129;-59
2023/11/26 00:04:08;;;;;;;1.13;0.73;;;-0.60;99.90;;;;;;4977662;28;20113;-59
2023/11/26 00:06:34;;;;;;;0.60;0.55;;;-0.70;99.90;;;;;;4977536;28;20081;-59
2023/11/26 00:08:59;;;;;;;0.77;0.70;;;-0.70;99.90;;;;;;4975920;28;20514;-58
2023/11/26 00:11:25;;;;;;;2.70;1.02;;;-0.80;99.90;;;;;;4978108;28;20062;-59
2023/11/26 00:13:51;;;;;;;0.95;0.60;;;-0.80;99.90;;;;;;4977478;28;20022;-58
2023/11/26 00:16:17;;;;;;;3.20;1.00;;;-0.80;99.90;;;;;;4977485;28;20038;-59
2023/11/26 00:18:42;;;;;;;2.45;1.00;;;-0.80;99.90;;;;;;4977428;28;20088;-59
2023/11/26 00:21:08;;;;;;;0.82;0.52;;;-0.80;99.90;;;;;;4976908;28;20038;-59
2023/11/26 00:23:33;;;;;;;1.08;0.70;;;-0.90;99.90;;;;;;4977625;28;20069;-59
2023/11/26 00:25:59;;;;;;;1.67;0.80;;;-0.90;99.90;;;;;;4977514;28;20469;-58
2023/11/26 00:28:24;;;;;;;1.70;0.98;;;-0.90;99.90;;;;;;4979758;28;20041;-59
2023/11/26 00:30:50;;;;;;;1.13;1.02;;;-1.00;99.90;;;;;;4981370;28;20038;-59
2023/11/26 00:33:18;;;;;;;1.40;0.90;;;-1.00;99.90;;;;;;4979207;28;20066;-59
2023/11/26 00:35:45;;;;;;;1.50;0.82;;;-1.00;99.90;;;;;;4978955;28;20050;-55
2023/11/26 00:38:11;;;;;;;2.00;1.00;;;-1.00;99.90;;;;;;4978710;28;20032;-58
2023/11/26 00:40:37;;;;;;;1.80;1.00;;;-1.10;99.90;;;;;;4981165;28;20401;-59
2023/11/26 00:43:02;;;;;;;1.55;1.05;;;-1.10;99.90;;;;;;4982935;28;20037;-59
2023/11/26 00:45:28;;;;;;;2.95;1.17;;;-1.20;99.90;;;;;;4980492;28;20268;-59
2023/11/26 00:47:53;;;;;;;1.95;1.10;;;-1.20;99.90;;;;;;4981211;28;20501;-59
2023/11/26 00:50:19;;;;;;;0.68;0.68;;;-1.30;99.90;;;;;;4979022;28;20044;-59
2023/11/26 00:52:45;;;;;;;0.65;0.65;;;-1.30;99.90;;;;;;4981291;28;20042;-59
2023/11/26 00:55:11;;;;;;;0.85;0.70;;;-1.40;99.90;;;;;;4980972;28;20022;-59
2023/11/26 00:57:36;;;;;;;0.57;0.57;;;-1.40;99.90;;;;;;4978818;28;20092;-60
2023/11/26 01:00:10;;;;;;;1.52;0.80;;;-1.40;99.90;;;;;;4981139;28;20080;-59
2023/11/26 01:02:35;;;;;;;0.50;0.50;;;-1.50;99.90;;;;;;4982726;28;20026;-60
2023/11/26 01:05:02;;;;;;;2.13;0.68;;;-1.50;99.90;;;;;;4980704;28;20494;-59
2023/11/26 01:07:30;;;;;;;2.75;0.95;;;-1.60;99.90;;;;;;4980591;28;20571;-60
2023/11/26 01:09:56;;;;;;;1.88;1.00;;;-1.60;99.90;;;;;;4980378;28;20081;-60
2023/11/26 01:12:22;;;;;;;0.75;0.70;;;-1.50;99.90;;;;;;4980845;28;20177;-59
2023/11/26 01:14:47;;;;;;;2.65;1.10;;;-1.60;99.90;;;;;;4980804;28;20554;-59
2023/11/26 01:17:13;;;;;;;1.50;0.90;;;-1.70;99.90;;;;;;4978606;28;20034;-59
2023/11/26 01:19:39;;;;;;;1.88;0.98;;;-1.70;99.90;;;;;;4978773;28;20023;-60
2023/11/26 01:22:04;;;;;;;2.10;1.00;;;-1.70;99.90;;;;;;4980600;28;20030;-59
2023/11/26 01:24:29;;;;;;;0.88;0.80;;;-1.80;99.90;;;;;;4980527;28;20410;-59
2023/11/26 01:26:55;;;;;;;0.65;0.60;;;-1.70;99.90;;;;;;4974829;28;20062;-59
2023/11/26 01:29:20;;;;;;;2.92;1.02;;;-1.80;99.90;;;;;;4980539;28;20026;-60
2023/11/26 01:31:46;;;;;;;2.17;0.80;;;-1.80;99.90;;;;;;4982334;28;20201;-59
2023/11/26 01:34:11;;;;;;;1.98;0.88;;;-1.80;99.90;;;;;;4980226;28;20441;-59
2023/11/26 01:36:39;;;;;;;1.85;1.13;;;-1.90;99.90;;;;;;4974245;28;20050;-59
2023/11/26 01:39:06;;;;;;;1.15;0.80;;;-1.90;99.90;;;;;;4979864;28;20030;-59
2023/11/26 01:41:33;;;;;;;0.73;0.70;;;-1.90;99.90;;;;;;4979347;28;20042;-59
2023/11/26 01:43:59;;;;;;;0.90;0.60;;;-2.00;99.90;;;;;;4979915;28;20372;-59
2023/11/26 01:46:27;;;;;;;1.63;0.90;;;-2.00;99.90;;;;;;4979766;28;20498;-59
2023/11/26 01:48:53;;;;;;;1.08;0.80;;;-2.10;99.90;;;;;;4979901;28;20030;-59
2023/11/26 01:51:20;;;;;;;0.65;0.65;;;-2.00;99.90;;;;;;4981040;28;20094;-59
2023/11/26 01:53:48;;;;;;;0.88;0.70;;;-2.00;99.90;;;;;;4977985;28;20035;-59
2023/11/26 01:56:15;;;;;;;1.58;0.85;;;-2.10;99.90;;;;;;4979906;28;20286;-58
2023/11/26 01:58:41;;;;;;;2.00;0.80;;;-2.10;99.90;;;;;;4979734;28;20034;-60
2023/11/26 02:01:06;;;;;;;1.25;1.15;;;-2.10;99.90;;;;;;4979750;28;20091;-59
2023/11/26 02:03:32;;;;;;;0.75;0.68;;;-2.20;99.90;;;;;;4979544;28;20521;-59
2023/11/26 02:05:58;;;;;;;1.60;0.70;;;-2.20;99.90;;;;;;4982053;28;20038;-59
2023/11/26 02:08:24;;;;;;;1.92;0.93;;;-2.20;99.90;;;;;;4981888;28;20121;-59
2023/11/26 02:10:50;;;;;;;0.85;0.65;;;-2.30;99.90;;;;;;4979559;28;20640;-59
2023/11/26 02:13:15;;;;;;;1.73;0.75;;;-2.30;99.90;;;;;;4980797;28;20101;-59
2023/11/26 02:15:41;;;;;;;1.15;0.90;;;-2.40;99.90;;;;;;4982011;28;20114;-59
2023/11/26 02:18:07;;;;;;;2.47;0.75;;;-2.40;99.90;;;;;;4981898;28;20062;-59
2023/11/26 02:20:32;;;;;;;1.27;0.88;;;-2.40;99.90;;;;;;4981487;28;20410;-59
2023/11/26 02:22:58;;;;;;;0.85;0.70;;;-2.50;99.90;;;;;;4981842;28;20045;-60
2023/11/26 02:25:29;;;;;;;1.73;0.77;;;-2.50;99.90;;;;;;4982062;28;20022;-59
2023/11/26 02:27:55;;;;;;;0.85;0.85;;;-2.50;99.90;;;;;;4979722;28;20038;-59
2023/11/26 02:30:21;;;;;;;1.52;0.70;;;-2.50;99.90;;;;;;4981794;28;20037;-53
2023/11/26 02:32:47;;;;;;;0.73;0.73;;;-2.50;99.90;;;;;;4982112;28;20030;-54
2023/11/26 02:35:13;;;;;;;0.90;0.55;;;-2.60;99.90;;;;;;4981660;28;20023;-59
2023/11/26 02:37:38;;;;;;;1.25;1.00;;;-2.60;99.90;;;;;;4976039;28;20410;-59
2023/11/26 02:40:05;;;;;;;0.80;0.60;;;-2.60;99.90;;;;;;4983225;28;20038;-59
2023/11/26 02:42:32;;;;;;;0.68;0.68;;;-2.70;99.90;;;;;;4979595;28;20029;-60
2023/11/26 02:44:59;;;;;;;1.55;0.65;;;-2.70;99.90;;;;;;4981279;28;20065;-59
2023/11/26 02:47:26;;;;;;;1.35;0.80;;;-2.70;99.90;;;;;;4980030;28;20394;-59
2023/11/26 02:49:52;;;;;;;0.77;0.70;;;-2.70;99.90;;;;;;4980717;28;20437;-59
2023/11/26 02:52:18;;;;;;;0.90;0.70;;;-2.70;99.90;;;;;;4981307;28;20042;-59
2023/11/26 02:54:44;;;;;;;0.77;0.60;;;-2.70;99.90;;;;;;4981278;28;20197;-59
2023/11/26 02:57:10;;;;;;;0.80;0.70;;;-2.80;99.90;;;;;;4981283;28;20277;-59
2023/11/26 02:59:35;;;;;;;1.08;0.60;;;-2.80;99.90;;;;;;4982956;28;20022;-60
2023/11/26 03:02:01;;;;;;;0.70;0.70;;;-2.90;99.90;;;;;;4981457;28;20030;-59
2023/11/26 03:04:26;;;;;;;1.20;0.65;;;-2.90;99.90;;;;;;4980868;28;20042;-59
2023/11/26 03:06:52;;;;;;;1.17;0.80;;;-2.90;99.90;;;;;;4981087;28;20097;-59
2023/11/26 03:14:45;;;;;;;0.65;0.63;;;-2.90;99.90;;;;;;4983029;28;20041;-60
2023/11/26 03:17:13;;;;;;;0.65;0.57;;;-3.00;99.90;;;;;;4979112;28;20025;-59
2023/11/26 03:19:39;;;;;;;0.82;0.68;;;-3.00;99.90;;;;;;4980907;28;20026;-60
2023/11/26 03:22:09;;;;;;;2.08;1.00;;;-3.00;99.90;;;;;;4980957;28;20081;-59
2023/11/26 03:24:35;;;;;;;1.23;0.73;;;-3.00;99.90;;;;;;4979462;28;20383;-59
2023/11/26 03:27:02;;;;;;;1.85;0.68;;;-3.00;99.90;;;;;;4976714;28;20033;-59
2023/11/26 03:29:28;;;;;;;0.73;0.70;;;-3.00;99.90;;;;;;4981154;28;20122;-59
2023/11/26 03:31:53;;;;;;;0.90;0.63;;;-3.00;99.90;;;;;;4980764;28;20134;-59
2023/11/26 03:34:19;;;;;;;0.63;0.63;;;-3.10;99.90;;;;;;4981789;28;20040;-59
2023/11/26 03:36:45;;;;;;;1.98;0.80;;;-3.00;99.90;;;;;;4972529;28;20041;-59
2023/11/26 03:39:12;;;;;;;1.33;0.60;;;-3.00;99.90;;;;;;4980609;28;20106;-59
2023/11/26 03:41:38;;;;;;;0.80;0.80;;;-3.10;99.90;;;;;;4980402;28;20026;-59
2023/11/26 03:44:04;;;;;;;0.80;0.80;;;-3.00;99.90;;;;;;4977067;28;20034;-59
2023/11/26 03:46:32;;;;;;;1.13;0.90;;;-3.00;99.90;;;;;;4979707;28;20061;-59
2023/11/26 03:48:58;;;;;;;2.17;0.93;;;-3.10;99.90;;;;;;4980454;28;20022;-59
2023/11/26 03:51:24;;;;;;;1.65;0.85;;;-3.10;99.90;;;;;;4980224;28;20481;-59
2023/11/26 03:53:49;;;;;;;0.63;0.55;;;-3.10;99.90;;;;;;4982280;28;20034;-59
2023/11/26 03:56:15;;;;;;;1.20;0.88;;;-3.10;99.90;;;;;;4980268;28;20041;-59
2023/11/26 03:58:40;;;;;;;1.63;0.80;;;-3.10;99.90;;;;;;4980352;28;20125;-59
2023/11/26 04:01:06;;;;;;;1.63;0.73;;;-3.10;99.90;;;;;;4980346;28;20026;-59
2023/11/26 04:03:31;;;;;;;0.30;0.30;;;-3.10;99.90;;;;;;4979976;28;20389;-60
2023/11/26 04:05:57;;;;;;;0.93;0.60;;;-3.10;99.90;;;;;;4980068;28;20068;-59
2023/11/26 04:08:22;;;;;;;0.70;0.70;;;-3.20;99.90;;;;;;4977922;28;20026;-59
2023/11/26 04:10:48;;;;;;;0.77;0.77;;;-3.20;99.90;;;;;;4980214;28;20560;-59
2023/11/26 04:13:14;;;;;;;0.50;0.50;;;-3.20;99.90;;;;;;4980330;28;20492;-59
2023/11/26 04:15:46;;;;;;;1.85;0.90;;;-3.30;99.90;;;;;;4980357;28;20022;-59
2023/11/26 04:18:12;;;;;;;0.60;0.52;;;-3.40;99.90;;;;;;4978711;28;20153;-59
2023/11/26 04:20:37;;;;;;;1.52;0.90;;;-3.40;99.90;;;;;;4979916;28;20022;-59
2023/11/26 04:23:03;;;;;;;0.85;0.80;;;-3.50;99.90;;;;;;4980085;28;20502;-59
2023/11/26 04:25:28;;;;;;;1.05;0.70;;;-3.50;99.90;;;;;;4980089;28;20026;-59
2023/11/26 04:27:55;;;;;;;1.55;0.65;;;-3.50;99.90;;;;;;4977648;28;20113;-59
2023/11/26 04:30:21;;;;;;;1.35;0.75;;;-3.60;99.90;;;;;;4977271;28;20482;-59
2023/11/26 04:32:47;;;;;;;1.02;0.77;;;-3.60;99.90;;;;;;4979769;28;20030;-59
2023/11/26 04:35:12;;;;;;;1.55;0.93;;;-3.70;99.90;;;;;;4979879;28;20034;-58
2023/11/26 04:37:38;;;;;;;1.05;0.80;;;-3.70;99.90;;;;;;4974200;28;20022;-59
2023/11/26 04:40:05;;;;;;;0.90;0.60;;;-3.80;99.90;;;;;;4979978;28;20057;-58
2023/11/26 04:42:33;;;;;;;1.05;0.88;;;-3.80;99.90;;;;;;4979919;28;20026;-58
2023/11/26 04:44:59;;;;;;;1.60;0.80;;;-3.80;99.90;;;;;;4979885;28;20053;-58
2023/11/26 04:47:24;;;;;;;1.20;0.90;;;-3.90;99.90;;;;;;4981651;28;20034;-58
2023/11/26 04:49:50;;;;;;;1.45;1.25;;;-3.90;99.90;;;;;;4980115;28;20594;-58
2023/11/26 04:52:15;;;;;;;0.98;0.85;;;-4.00;99.90;;;;;;4979968;28;20023;-58
2023/11/26 04:54:41;;;;;;;1.40;0.82;;;-4.00;99.90;;;;;;4979900;28;20034;-58
2023/11/26 04:57:06;;;;;;;3.40;0.90;;;-4.00;99.90;;;;;;4978651;28;20022;-58
2023/11/26 04:59:32;;;;;;;0.88;0.70;;;-4.00;99.90;;;;;;4981427;28;20045;-57
2023/11/26 05:01:58;;;;;;;1.25;0.80;;;-4.00;99.90;;;;;;4979877;28;20114;-58
2023/11/26 05:04:24;;;;;;;1.15;0.95;;;-4.00;99.90;;;;;;4979605;28;20076;-58
2023/11/26 05:06:50;;;;;;;2.58;0.80;;;-4.10;99.90;;;;;;4979594;28;20034;-58
2023/11/26 05:09:16;;;;;;;0.88;0.70;;;-4.10;99.90;;;;;;4979780;28;20029;-57
2023/11/26 05:11:45;;;;;;;1.10;0.88;;;-4.00;99.90;;;;;;4979667;28;20037;-58
2023/11/26 05:14:11;;;;;;;1.25;1.10;;;-4.00;99.90;;;;;;4981452;28;20053;-58
2023/11/26 05:16:38;;;;;;;1.75;1.25;;;-4.00;99.90;;;;;;4985024;28;20058;-56
2023/11/26 05:19:03;;;;;;;2.25;1.27;;;-3.90;99.90;;;;;;4983387;28;20569;-57
2023/11/26 05:21:29;;;;;;;2.80;1.73;;;-3.90;99.90;;;;;;4983321;28;20041;-57
2023/11/26 05:23:55;;;;;;;3.75;1.60;;;-3.90;99.90;;;;;;4983196;28;20033;-57
2023/11/26 05:26:21;;;;;;;2.60;1.63;;;-3.80;99.90;;;;;;4983115;28;20037;-59
2023/11/26 05:28:46;;;;;;;3.80;1.70;;;-3.70;99.90;;;;;;4981831;28;20023;-57
2023/11/26 05:31:12;;;;;;;1.95;1.23;;;-3.60;99.90;;;;;;4984852;28;20057;-57
2023/11/26 05:33:38;;;;;;;2.88;1.45;;;-3.60;99.90;;;;;;4983003;28;20015;-58
2023/11/26 05:36:05;;;;;;;2.47;1.52;;;-3.50;99.90;;;;;;4979735;28;20460;-57
2023/11/26 05:38:31;;;;;;;1.73;1.33;;;-3.40;99.90;;;;;;4983031;28;20025;-57
2023/11/26 05:40:56;;;;;;;1.50;1.38;;;-3.30;99.90;;;;;;4981451;28;20410;-58
2023/11/26 05:43:22;;;;;;;2.33;1.75;;;-3.30;99.90;;;;;;4982534;28;20046;-57
2023/11/26 05:45:48;;;;;;;2.20;1.25;;;-3.20;99.90;;;;;;4984370;28;20047;-57
2023/11/26 05:48:13;;;;;;;2.63;1.70;;;-3.10;99.90;;;;;;4978709;28;20108;-58
2023/11/26 05:50:39;;;;;;;3.72;1.77;;;-3.00;99.90;;;;;;4982585;28;20031;-58
2023/11/26 05:53:04;;;;;;;2.80;1.60;;;-2.90;99.90;;;;;;4981367;28;20026;-58
2023/11/26 05:55:30;;;;;;;2.90;1.40;;;-2.80;99.90;;;;;;4982633;28;20419;-57
2023/11/26 05:57:56;;;;;;;2.78;1.42;;;-2.70;99.90;;;;;;4982700;28;20423;-58
2023/11/26 06:00:21;;;;;;;4.57;1.67;;;-2.60;99.90;;;;;;4982275;28;20037;-57
2023/11/26 06:02:46;;;;;;;5.22;2.20;;;-2.60;99.90;;;;;;4984389;28;20276;-58
2023/11/26 06:05:12;;;;;;;7.50;2.90;;;-2.50;99.90;;;;;;4982355;28;20144;-57
2023/11/26 06:07:38;;;;;;;14.05;4.82;;;-2.50;99.90;;;;;;4978270;28;20041;-58
2023/11/26 06:10:04;;;;;;;21.08;6.22;;;-2.40;99.90;;;;;;4982366;28;20023;-58
2023/11/26 06:12:31;;;;;;;21.17;8.05;;;-2.40;99.90;;;;;;4982170;28;20042;-58
2023/11/26 06:14:56;;;;;;;37.83;10.68;;;-2.40;99.90;;;;;;4982258;28;20031;-58
2023/11/26 06:17:22;;;;;;;22.13;8.13;;;-2.40;99.90;;;;;;4982072;28;20109;-58
2023/11/26 06:19:48;;;;;;;15.88;6.03;;;-2.40;99.90;;;;;;4982367;28;20032;-57
2023/11/26 06:22:13;;;;;;;15.65;6.55;;;-2.40;99.90;;;;;;4979604;28;20019;-57
2023/11/26 06:24:39;;;;;;;11.60;4.70;;;-2.40;99.90;;;;;;4979062;28;20058;-58
2023/11/26 06:27:04;;;;;;;8.82;3.97;;;-2.40;99.90;;;;;;4975066;28;20038;-58
2023/11/26 06:29:30;;;;;;;8.95;3.60;;;-2.30;99.90;;;;;;4978170;28;20398;-58
2023/11/26 06:31:55;;;;;;;10.50;4.85;;;-2.30;99.90;;;;;;4978874;28;20080;-58
2023/11/26 06:34:26;;;;;;;8.90;3.15;;;-2.30;99.90;;;;;;4981160;28;20478;-57
2023/11/26 06:36:53;;;;;;;6.32;2.72;;;-2.30;99.90;;;;;;4974742;28;20026;-58
2023/11/26 06:39:19;;;;;;;4.45;2.22;;;-2.20;99.90;;;;;;4977259;28;20104;-58
2023/11/26 06:41:44;;;;;;;4.25;1.90;;;-2.20;99.90;;;;;;4979304;28;20240;-58
2023/11/26 06:44:10;;;;;;;4.63;2.10;;;-2.10;99.90;;;;;;4978747;28;20193;-58
2023/11/26 06:46:36;;;;;;;6.63;2.65;;;-2.10;99.90;;;;;;4975107;28;20517;-57
2023/11/26 06:49:01;;;;;;;6.75;2.53;;;-2.00;99.90;;;;;;4978983;28;20030;-56
2023/11/26 06:51:28;;;;;;;5.53;2.42;;;-1.90;99.90;;;;;;4980745;28;20064;-58
2023/11/26 06:53:54;;;;;;;8.10;2.53;;;-1.80;99.90;;;;;;4978553;28;20074;-58
2023/11/26 06:56:20;;;;;;;7.07;2.80;;;-1.80;99.90;;;;;;4977210;28;20022;-59
2023/11/26 06:58:49;;;;;;;6.25;2.88;;;-1.70;99.90;;;;;;4978806;28;20092;-57
2023/11/26 07:01:14;;;;;;;5.22;2.45;;;-1.70;99.90;;;;;;4978888;28;20057;-57
2023/11/26 07:03:40;;;;;;;11.40;3.72;;;-1.60;99.90;;;;;;4978790;28;20077;-57
2023/11/26 07:06:08;;;;;;;14.50;5.28;;;-1.50;99.90;;;;;;4978682;28;20092;-57
2023/11/26 07:08:37;;;;;;;19.13;5.60;;;-1.50;99.90;;;;;;4978316;28;20077;-55
2023/11/26 07:11:06;;;;;;;12.48;4.78;;;-1.40;99.90;;;;;;4978980;28;20495;-57
2023/11/26 07:13:33;;;;;;;12.82;5.15;;;-1.40;99.90;;;;;;4976399;28;20026;-57
2023/11/26 07:15:58;;;;;;;19.83;6.68;;;-1.30;99.90;;;;;;4978117;28;20178;-57
2023/11/26 07:18:24;;;;;;;20.40;7.60;;;-1.20;99.90;;;;;;4973577;28;23301;-58
2023/11/26 07:20:50;;;;;;;19.58;8.02;;;-1.20;99.90;;;;;;4977994;28;20038;-57
2023/11/26 07:23:16;;;;;;;17.42;6.68;;;-1.10;99.90;;;;;;4978520;28;20046;-57
2023/11/26 07:25:42;;;;;;;18.25;7.20;;;-1.10;99.90;;;;;;4974425;28;20030;-56
2023/11/26 07:28:11;;;;;;;17.85;6.80;;;-1.00;99.90;;;;;;4979717;28;20406;-59
2023/11/26 07:30:40;;;;;;;14.32;5.97;;;-0.90;99.90;;;;;;4979436;28;20375;-57
2023/11/26 07:33:06;;;;;;;13.80;4.78;;;-0.90;99.90;;;;;;4981292;28;20113;-57
2023/11/26 07:35:31;;;;;;;10.10;4.13;;;-0.80;99.90;;;;;;4979506;28;20105;-57
2023/11/26 07:37:57;;;;;;;7.15;3.67;;;-0.60;99.90;;;;;;4974999;28;20030;-58
2023/11/26 07:40:23;;;;;;;7.40;3.85;;;-0.60;99.90;;;;;;4980601;28;20050;-59
2023/11/26 07:42:50;;;;;;;6.47;3.00;;;-0.50;99.90;;;;;;4980812;28;20727;-59
2023/11/26 07:45:15;;;;;;;4.45;2.80;;;-0.40;99.90;;;;;;4980523;28;20125;-59
2023/11/26 07:47:41;;;;;;;4.13;2.30;;;-0.30;99.90;;;;;;4980529;28;20122;-57
2023/11/26 07:50:07;;;;;;;4.35;2.03;;;-0.20;99.90;;;;;;4982565;28;20496;-55
2023/11/26 07:52:34;;;;;;;3.92;2.00;;;-0.10;99.90;;;;;;4980572;28;20045;-56
2023/11/26 07:55:03;;;;;;;4.93;1.92;;;-0.10;99.90;;;;;;4980521;28;20019;-55
2023/11/26 07:57:30;;;;;;;3.88;2.20;;;0.00;99.90;;;;;;4980655;28;20037;-55
2023/11/26 07:59:57;;;;;;;2.53;1.73;;;-0.10;99.90;;;;;;4980769;28;20397;-56
2023/11/26 08:02:23;;;;;;;6.43;1.95;;;-0.10;99.90;;;;;;4980669;28;20057;-57
2023/11/26 08:04:51;;;;;;;3.53;1.70;;;-0.10;99.90;;;;;;4980438;28;20022;-55
2023/11/26 08:07:17;;;;;;;4.25;1.70;;;-0.10;99.90;;;;;;4980126;28;20536;-55
2023/11/26 08:09:43;;;;;;;2.92;2.00;;;0.00;99.90;;;;;;4982582;28;20081;-56
2023/11/26 08:12:13;;;;;;;3.60;2.10;;;0.20;99.90;;;;;;4980496;28;20026;-56
2023/11/26 08:14:38;;;;;;;3.50;1.90;;;0.30;99.90;;;;;;4980369;28;20026;-56
2023/11/26 08:17:05;;;;;;;4.97;2.03;;;0.50;99.90;;;;;;4980515;28;20580;-55
2023/11/26 08:19:31;;;;;;;2.95;1.85;;;0.70;99.90;;;;;;4980350;28;20032;-59
2023/11/26 08:21:56;;;;;;;2.90;1.85;;;0.90;99.90;;;;;;4980378;28;20471;-56
2023/11/26 08:24:23;;;;;;;5.53;2.20;;;1.10;99.90;;;;;;4980213;28;20053;-55
2023/11/26 08:26:51;;;;;;;3.33;2.25;;;1.20;99.90;;;;;;4980356;28;20487;-56
2023/11/26 08:29:18;;;;;;;3.28;2.20;;;1.30;99.90;;;;;;4981949;28;20054;-56
2023/11/26 08:31:48;;;;;;;4.88;2.40;;;1.50;99.90;;;;;;4980241;28;20097;-56
2023/11/26 08:34:15;;;;;;;3.83;2.10;;;1.70;99.90;;;;;;4980395;28;20022;-57
2023/11/26 08:36:42;;;;;;;4.60;2.40;;;1.90;99.90;;;;;;4974132;28;20038;-61
2023/11/26 08:39:25;;;;;;;4.80;3.05;;;2.00;99.90;;;;;;4979842;28;20031;-61
2023/11/26 08:41:51;;;;;;;4.10;2.35;;;2.10;99.90;;;;;;4979927;28;20616;-60
2023/11/26 08:44:17;;;;;;;4.90;2.65;;;2.20;99.90;;;;;;4981445;28;20117;-60
2023/11/26 08:46:43;;;;;;;4.57;2.10;;;2.30;99.90;;;;;;4979771;28;20065;-61
2023/11/26 08:49:09;;;;;;;2.72;1.80;;;2.40;99.90;;;;;;4981621;28;20129;-60
2023/11/26 08:51:40;;;;;;;4.00;2.63;;;2.50;99.90;;;;;;4983694;28;20290;-61
2023/11/26 08:54:06;;;;;;;3.33;2.17;;;2.60;99.90;;;;;;4983834;28;20035;-60
2023/11/26 08:56:31;;;;;;;2.80;2.00;;;2.70;99.90;;;;;;4979646;28;20042;-60
2023/11/26 08:58:57;;;;;;;2.42;2.15;;;2.80;99.90;;;;;;4983643;28;20026;-60
2023/11/26 09:01:22;;;;;;;2.15;1.80;;;2.80;99.90;;;;;;4985607;28;20034;-60
2023/11/26 09:03:48;;;;;;;3.33;1.95;;;2.90;99.90;;;;;;4983321;28;20522;-60
2023/11/26 09:06:13;;;;;;;3.63;2.05;;;2.90;99.90;;;;;;4982071;28;20037;-60
2023/11/26 09:08:39;;;;;;;3.42;1.77;;;3.00;99.90;;;;;;4983514;28;20192;-60
2023/11/26 09:11:06;;;;;;;3.47;2.13;;;3.00;99.90;;;;;;4983323;28;20509;-60
2023/11/26 09:13:32;;;;;;;4.72;2.20;;;3.00;99.90;;;;;;4983195;28;20465;-60
2023/11/26 09:15:59;;;;;;;2.90;2.10;;;3.10;99.90;;;;;;4985237;28;20478;-60
2023/11/26 09:18:25;;;;;;;4.40;1.90;;;3.10;99.90;;;;;;4979728;28;20102;-60
2023/11/26 09:20:50;;;;;;;4.10;2.28;;;3.00;99.90;;;;;;4983267;28;20113;-61
2023/11/26 09:23:16;;;;;;;5.00;1.90;;;3.00;99.90;;;;;;4982833;28;20502;-60
2023/11/26 09:25:41;;;;;;;2.60;2.03;;;3.00;99.90;;;;;;4983122;28;20021;-60
2023/11/26 09:28:07;;;;;;;3.70;2.38;;;2.90;99.90;;;;;;4983215;28;20087;-60
2023/11/26 09:30:34;;;;;;;3.17;1.90;;;2.90;99.90;;;;;;4984944;28;20479;-60
2023/11/26 09:32:59;;;;;;;2.22;1.88;;;2.90;99.90;;;;;;4981073;28;20026;-61
2023/11/26 09:35:25;;;;;;;3.70;1.95;;;2.90;99.90;;;;;;4983163;28;20547;-60
2023/11/26 09:37:50;;;;;;;3.95;1.92;;;2.90;99.90;;;;;;4977359;28;20048;-61
2023/11/26 09:40:16;;;;;;;4.68;1.95;;;2.90;99.30;;;;;;4983067;28;20406;-59
2023/11/26 09:42:49;;;;;;;4.38;1.73;;;2.90;98.70;;;;;;4978105;28;20038;-60
2023/11/26 09:45:18;;;;;;;4.78;2.15;;;2.90;98.10;;;;;;4981027;28;20030;-60
2023/11/26 09:47:44;;;;;;;2.13;1.80;;;2.80;97.20;;;;;;4981385;28;20030;-60
2023/11/26 09:50:09;;;;;;;4.32;2.30;;;2.90;97.70;;;;;;4981694;28;20049;-59
2023/11/26 09:52:37;;;;;;;2.85;1.77;;;2.90;97.40;;;;;;4983285;28;20445;-61
2023/11/26 09:55:03;;;;;;;2.33;1.70;;;2.90;96.50;;;;;;4981454;28;20638;-61
2023/11/26 09:57:29;;;;;;;2.30;1.95;;;2.90;95.10;;;;;;4981458;28;20503;-60
2023/11/26 09:59:56;;;;;;;2.40;1.50;;;2.80;95.70;;;;;;4975858;28;20046;-61
2023/11/26 10:02:21;;;;;;;3.90;2.15;;;2.80;95.00;;;;;;4977267;28;20037;-60
2023/11/26 10:04:51;;;;;;;4.00;1.77;;;2.80;95.10;;;;;;4981446;28;20030;-59
2023/11/26 10:07:18;;;;;;;1.60;1.50;;;2.80;94.70;;;;;;4981457;28;20064;-60
2023/11/26 10:10:09;;;;;;;3.35;1.80;;;2.80;94.60;;;;;;4982066;28;20026;-61
2023/11/26 10:12:51;;;;;;;2.58;1.77;;;2.60;93.50;;;;;;4981181;28;20061;-60
2023/11/26 10:15:18;;;;;;;2.67;1.77;;;2.60;93.50;;;;;;4981207;28;20042;-60
2023/11/26 10:18:03;;;;;;;3.20;1.85;;;2.60;92.70;;;;;;4980908;28;20022;-60
2023/11/26 10:20:29;;;;;;;4.50;2.00;;;2.50;93.60;;;;;;4980379;28;20509;-61
2023/11/26 10:22:56;;;;;;;5.00;2.08;;;2.50;93.70;;;;;;4982157;28;20034;-60
2023/11/26 10:25:23;;;;;;;3.42;2.10;;;2.50;93.30;;;;;;4982106;28;20038;-60
2023/11/26 10:27:49;;;;;;;3.80;1.92;;;2.40;93.20;;;;;;4983360;28;20034;-60
2023/11/26 10:30:32;;;;;;;3.70;2.10;;;2.30;91.80;;;;;;4978841;28;20398;-60
2023/11/26 10:33:03;;;;;;;4.15;1.70;;;2.30;93.10;;;;;;4979678;28;20102;-61
2023/11/26 10:35:49;;;;;;;2.20;1.88;;;2.20;93.10;;;;;;4981774;28;20406;-60
2023/11/26 10:38:17;;;;;;;2.00;1.40;;;2.20;92.40;;;;;;4981918;28;20029;-60
2023/11/26 10:40:42;;;;;;;3.55;2.22;;;2.20;92.00;;;;;;4982103;28;20033;-60
2023/11/26 10:43:09;;;;;;;3.83;1.80;;;2.10;91.20;;;;;;4981476;28;20238;-61
2023/11/26 10:45:35;;;;;;;3.40;2.30;;;2.10;91.90;;;;;;4981782;28;20042;-60
2023/11/26 10:48:10;;;;;;;3.10;1.67;;;2.10;92.00;;;;;;4981635;28;20046;-60
2023/11/26 10:50:41;;;;;;;2.53;1.40;;;2.10;92.00;;;;;;4980434;28;20108;-60
2023/11/26 10:53:21;;;;;;;3.20;1.80;;;2.10;91.30;;;;;;4981899;28;20018;-59
2023/11/26 10:55:49;;;;;;;2.10;1.50;;;2.00;91.10;;;;;;4979985;28;20057;-60
2023/11/26 10:58:19;;;;;;;4.78;1.63;;;2.00;90.60;;;;;;4983073;28;20030;-59
2023/11/26 11:00:51;;;;;;;3.65;1.60;;;2.00;90.90;;;;;;4981802;28;21094;-59
2023/11/26 11:03:17;;;;;;;3.22;1.58;;;2.10;91.30;;;;;;4981655;28;20113;-58
2023/11/26 11:05:47;;;;;;;3.10;1.65;;;2.10;91.30;;;;;;4981408;28;20034;-59
2023/11/26 11:08:14;;;;;;;5.43;1.75;;;2.10;91.40;;;;;;4981262;28;20049;-58
2023/11/26 11:11:19;;;;;;;3.00;1.40;;;2.20;91.00;;;;;;4981168;28;20481;-59
2023/11/26 11:13:45;;;;;;;1.98;1.15;;;2.30;90.60;;;;;;4982970;28;20557;-58
2023/11/26 11:16:11;;;;;;;2.47;1.40;;;2.40;91.10;;;;;;4984347;28;20053;-58
2023/11/26 11:18:44;;;;;;;3.83;1.70;;;2.50;90.80;;;;;;4985236;28;20054;-58
2023/11/26 11:21:12;;;;;;;2.78;1.63;;;2.50;90.20;;;;;;4982401;28;20394;-58
2023/11/26 11:23:51;;;;;;;2.95;1.55;;;2.60;90.10;;;;;;4981269;28;20508;-59
2023/11/26 11:26:18;;;;;;;1.77;1.20;;;2.60;90.00;;;;;;4981528;28;20125;-59
2023/11/26 11:28:46;;;;;;;3.45;1.40;;;2.70;90.40;;;;;;4986531;28;20454;-59
2023/11/26 11:31:13;;;;;;;2.33;1.52;;;2.80;88.90;;;;;;4981482;28;20015;-60
2023/11/26 11:33:59;;;;;;;2.85;1.50;;;2.80;90.40;;;;;;4980317;28;20128;-60
2023/11/26 11:36:49;;;;;;;4.63;1.45;;;2.80;90.50;;;;;;4981414;28;20085;-60
2023/11/26 11:39:17;;;;;;;2.45;1.30;;;2.80;89.50;;;;;;4981924;28;20583;-59
2023/11/26 11:42:00;;;;;;;1.50;1.17;;;2.70;88.60;;;;;;4979760;28;20110;-60
2023/11/26 11:44:34;;;;;;;1.73;1.00;;;2.60;89.00;;;;;;4984588;28;20505;-60
2023/11/26 11:47:01;;;;;;;1.95;0.80;;;2.50;86.30;;;;;;4978538;28;20046;-60
2023/11/26 11:49:46;;;;;;;2.40;1.13;;;2.60;87.60;;;;;;4984206;28;20030;-59
2023/11/26 11:52:13;;;;;;;1.67;0.97;;;2.60;84.60;;;;;;4980887;28;20026;-59
2023/11/26 11:54:41;;;;;;;3.35;1.48;;;2.60;86.40;;;;;;4981481;28;20506;-60
2023/11/26 11:57:13;;;;;;;3.58;1.33;;;2.50;84.70;;;;;;4979213;28;20030;-60
2023/11/26 11:59:43;;;;;;;2.28;1.08;;;2.50;85.70;;;;;;4983023;28;20041;-60
2023/11/26 12:02:10;;;;;;;3.20;1.50;;;2.50;85.60;;;;;;4981470;28;20027;-60
2023/11/26 12:04:40;;;;;;;2.95;1.15;;;2.60;86.90;;;;;;4978661;28;20034;-59
2023/11/26 12:07:06;;;;;;;1.70;0.95;;;2.60;86.80;;;;;;4981482;28;20034;-60
2023/11/26 12:09:39;;;;;;;2.92;1.20;;;2.70;86.80;;;;;;4979680;28;20026;-60
2023/11/26 12:12:06;;;;;;;2.58;1.48;;;2.70;86.40;;;;;;4982308;28;20489;-60
2023/11/26 12:14:32;;;;;;;3.42;1.17;;;2.70;87.10;;;;;;4981146;28;20053;-60
2023/11/26 12:17:01;;;;;;;1.95;1.02;;;2.70;85.70;;;;;;4976406;28;20054;-60
2023/11/26 12:19:33;;;;;;;1.77;0.80;;;2.70;86.70;;;;;;4980878;28;20113;-60
2023/11/26 12:22:06;;;;;;;1.25;1.02;;;2.60;85.90;;;;;;4978089;28;20430;-59
2023/11/26 12:24:32;;;;;;;2.08;1.00;;;2.40;83.80;;;;;;4988961;28;20045;-60
2023/11/26 12:26:58;;;;;;;1.42;1.00;;;2.30;85.30;;;;;;4978688;28;20402;-60
2023/11/26 12:29:27;;;;;;;2.55;1.13;;;2.20;84.30;;;;;;4986487;28;20363;-59
2023/11/26 12:32:07;;;;;;;2.13;1.30;;;2.10;84.00;;;;;;4982814;28;20022;-59
2023/11/26 12:34:37;;;;;;;2.80;1.50;;;2.00;85.40;;;;;;4991125;28;20030;-60
2023/11/26 12:37:03;;;;;;;2.75;1.98;;;1.90;85.60;;;;;;4973255;28;20034;-59
2023/11/26 12:39:29;;;;;;;3.38;1.77;;;1.90;85.60;;;;;;4980508;28;20779;-59
2023/11/26 12:41:55;;;;;;;3.40;1.63;;;1.80;85.50;;;;;;4980435;28;20038;-59
2023/11/26 12:44:21;;;;;;;2.00;1.58;;;1.80;85.60;;;;;;4976394;28;20521;-60
2023/11/26 12:46:47;;;;;;;2.42;1.50;;;1.70;85.70;;;;;;4984916;28;20045;-60
2023/11/26 12:49:14;;;;;;;3.50;1.40;;;1.60;86.40;;;;;;4989128;28;20442;-59
2023/11/26 12:51:40;;;;;;;3.10;1.55;;;1.60;87.00;;;;;;4984616;28;20037;-61
2023/11/26 12:54:06;;;;;;;2.90;1.17;;;1.60;87.30;;;;;;4980756;28;20027;-60
2023/11/26 12:56:32;;;;;;;2.92;1.33;;;1.60;87.20;;;;;;4980362;28;20038;-60